sensor_id;sensor_type;location;lat;lon;timestamp;P1;durP1;ratioP1;P2;durP2;ratioP2
14907;SDS011;7545;52.092;7.006;2024-01-11T00:01:29;14.10;;;6.60;;
14907;SDS011;7545;52.092;7.006;2024-01-11T00:03:54;15.07;;;7.07;;
14907;SDS011;7545;52.092;7.006;2024-01-11T00:06:20;15.80;;;8.20;;
14907;SDS011;7545;52.092;7.006;2024-01-11T00:08:45;18.73;;;7.10;;
14907;SDS011;7545;52.092;7.006;2024-01-11T00:11:11;15.27;;;7.50;;
14907;SDS011;7545;52.092;7.006;2024-01-11T00:13:36;14.40;;;6.30;;
14907;SDS011;7545;52.092;7.006;2024-01-11T00:16:02;14.50;;;7.03;;
14907;SDS011;7545;52.092;7.006;2024-01-11T00:18:27;18.20;;;6.60;;
14907;SDS011;7545;52.092;7.006;2024-01-11T00:20:53;17.97;;;8.40;;
14907;SDS011;7545;52.092;7.006;2024-01-11T00:23:19;13.93;;;7.40;;
14907;SDS011;7545;52.092;7.006;2024-01-11T00:25:44;15.40;;;6.87;;
14907;SDS011;7545;52.092;7.006;2024-01-11T00:28:10;14.67;;;6.20;;
14907;SDS011;7545;52.092;7.006;2024-01-11T00:30:35;18.60;;;8.93;;
14907;SDS011;7545;52.092;7.006;2024-01-11T00:33:01;14.97;;;7.40;;
14907;SDS011;7545;52.092;7.006;2024-01-11T00:35:27;14.63;;;7.60;;
14907;SDS011;7545;52.092;7.006;2024-01-11T00:37:53;20.97;;;7.90;;
14907;SDS011;7545;52.092;7.006;2024-01-11T00:40:18;14.97;;;7.27;;
14907;SDS011;7545;52.092;7.006;2024-01-11T00:42:44;14.27;;;7.97;;
14907;SDS011;7545;52.092;7.006;2024-01-11T00:45:09;11.30;;;6.00;;
14907;SDS011;7545;52.092;7.006;2024-01-11T00:47:35;12.93;;;6.43;;
14907;SDS011;7545;52.092;7.006;2024-01-11T00:50:00;15.83;;;6.87;;
14907;SDS011;7545;52.092;7.006;2024-01-11T00:52:26;15.33;;;7.67;;
14907;SDS011;7545;52.092;7.006;2024-01-11T00:54:52;13.87;;;7.40;;
14907;SDS011;7545;52.092;7.006;2024-01-11T00:57:17;13.83;;;6.80;;
14907;SDS011;7545;52.092;7.006;2024-01-11T00:59:43;12.40;;;6.13;;
14907;SDS011;7545;52.092;7.006;2024-01-11T01:02:09;10.63;;;5.40;;
14907;SDS011;7545;52.092;7.006;2024-01-11T01:04:37;14.63;;;6.33;;
14907;SDS011;7545;52.092;7.006;2024-01-11T01:07:04;14.90;;;6.50;;
14907;SDS011;7545;52.092;7.006;2024-01-11T01:09:30;12.63;;;6.17;;
14907;SDS011;7545;52.092;7.006;2024-01-11T01:11:56;10.23;;;5.57;;
14907;SDS011;7545;52.092;7.006;2024-01-11T01:14:21;11.30;;;6.87;;
14907;SDS011;7545;52.092;7.006;2024-01-11T01:16:47;15.50;;;8.40;;
14907;SDS011;7545;52.092;7.006;2024-01-11T01:19:12;12.13;;;6.30;;
14907;SDS011;7545;52.092;7.006;2024-01-11T01:21:38;14.67;;;7.90;;
14907;SDS011;7545;52.092;7.006;2024-01-11T01:24:04;13.87;;;6.40;;
14907;SDS011;7545;52.092;7.006;2024-01-11T01:26:29;11.43;;;6.23;;
14907;SDS011;7545;52.092;7.006;2024-01-11T01:28:55;13.43;;;6.37;;
14907;SDS011;7545;52.092;7.006;2024-01-11T01:31:21;12.83;;;6.57;;
14907;SDS011;7545;52.092;7.006;2024-01-11T01:33:46;17.40;;;7.27;;
14907;SDS011;7545;52.092;7.006;2024-01-11T01:36:15;14.93;;;6.77;;
14907;SDS011;7545;52.092;7.006;2024-01-11T01:38:40;14.93;;;7.73;;
14907;SDS011;7545;52.092;7.006;2024-01-11T01:41:06;10.00;;;6.40;;
14907;SDS011;7545;52.092;7.006;2024-01-11T01:43:32;13.50;;;7.00;;
14907;SDS011;7545;52.092;7.006;2024-01-11T01:45:58;9.70;;;6.03;;
14907;SDS011;7545;52.092;7.006;2024-01-11T01:48:24;14.33;;;7.27;;
14907;SDS011;7545;52.092;7.006;2024-01-11T01:50:51;14.43;;;5.93;;
14907;SDS011;7545;52.092;7.006;2024-01-11T01:53:19;14.40;;;6.90;;
14907;SDS011;7545;52.092;7.006;2024-01-11T01:55:47;10.77;;;5.37;;
14907;SDS011;7545;52.092;7.006;2024-01-11T01:58:13;15.20;;;6.87;;
14907;SDS011;7545;52.092;7.006;2024-01-11T02:00:41;14.23;;;6.70;;
14907;SDS011;7545;52.092;7.006;2024-01-11T02:03:07;10.70;;;5.20;;
14907;SDS011;7545;52.092;7.006;2024-01-11T02:05:34;15.57;;;7.23;;
14907;SDS011;7545;52.092;7.006;2024-01-11T02:08:00;11.67;;;6.63;;
14907;SDS011;7545;52.092;7.006;2024-01-11T02:10:28;13.40;;;6.60;;
14907;SDS011;7545;52.092;7.006;2024-01-11T02:12:57;12.20;;;5.67;;
14907;SDS011;7545;52.092;7.006;2024-01-11T02:15:24;11.50;;;6.87;;
14907;SDS011;7545;52.092;7.006;2024-01-11T02:17:49;12.80;;;5.73;;
14907;SDS011;7545;52.092;7.006;2024-01-11T02:20:18;14.90;;;7.03;;
14907;SDS011;7545;52.092;7.006;2024-01-11T02:22:46;12.47;;;6.60;;
14907;SDS011;7545;52.092;7.006;2024-01-11T02:25:14;12.60;;;6.60;;
14907;SDS011;7545;52.092;7.006;2024-01-11T02:27:49;13.43;;;6.23;;
14907;SDS011;7545;52.092;7.006;2024-01-11T02:30:15;10.27;;;5.60;;
14907;SDS011;7545;52.092;7.006;2024-01-11T02:32:45;13.37;;;6.00;;
14907;SDS011;7545;52.092;7.006;2024-01-11T02:35:13;13.00;;;6.53;;
14907;SDS011;7545;52.092;7.006;2024-01-11T02:37:40;8.73;;;4.63;;
14907;SDS011;7545;52.092;7.006;2024-01-11T02:40:08;13.60;;;6.53;;
14907;SDS011;7545;52.092;7.006;2024-01-11T02:42:35;12.37;;;6.27;;
14907;SDS011;7545;52.092;7.006;2024-01-11T02:45:02;11.00;;;6.50;;
14907;SDS011;7545;52.092;7.006;2024-01-11T02:47:28;8.77;;;5.57;;
14907;SDS011;7545;52.092;7.006;2024-01-11T02:49:54;14.73;;;6.10;;
14907;SDS011;7545;52.092;7.006;2024-01-11T02:52:19;9.17;;;5.47;;
14907;SDS011;7545;52.092;7.006;2024-01-11T02:54:45;13.13;;;7.07;;
14907;SDS011;7545;52.092;7.006;2024-01-11T02:57:10;11.60;;;6.30;;
14907;SDS011;7545;52.092;7.006;2024-01-11T02:59:36;10.00;;;6.10;;
14907;SDS011;7545;52.092;7.006;2024-01-11T03:02:02;9.73;;;5.63;;
14907;SDS011;7545;52.092;7.006;2024-01-11T03:04:27;17.00;;;7.53;;
14907;SDS011;7545;52.092;7.006;2024-01-11T03:06:53;14.10;;;6.60;;
14907;SDS011;7545;52.092;7.006;2024-01-11T03:09:18;13.10;;;6.47;;
14907;SDS011;7545;52.092;7.006;2024-01-11T03:11:44;10.30;;;5.67;;
14907;SDS011;7545;52.092;7.006;2024-01-11T03:14:09;13.37;;;6.30;;
14907;SDS011;7545;52.092;7.006;2024-01-11T03:16:35;12.07;;;7.20;;
14907;SDS011;7545;52.092;7.006;2024-01-11T03:19:00;12.27;;;6.40;;
14907;SDS011;7545;52.092;7.006;2024-01-11T03:21:27;12.43;;;5.70;;
14907;SDS011;7545;52.092;7.006;2024-01-11T03:23:52;11.00;;;5.97;;
14907;SDS011;7545;52.092;7.006;2024-01-11T03:26:18;14.63;;;6.70;;
14907;SDS011;7545;52.092;7.006;2024-01-11T03:28:44;9.87;;;5.40;;
14907;SDS011;7545;52.092;7.006;2024-01-11T03:31:09;11.83;;;5.93;;
14907;SDS011;7545;52.092;7.006;2024-01-11T03:33:38;14.27;;;5.77;;
14907;SDS011;7545;52.092;7.006;2024-01-11T03:36:08;12.33;;;5.87;;
14907;SDS011;7545;52.092;7.006;2024-01-11T03:38:34;13.30;;;6.13;;
14907;SDS011;7545;52.092;7.006;2024-01-11T03:41:00;14.40;;;5.83;;
14907;SDS011;7545;52.092;7.006;2024-01-11T03:43:26;10.87;;;5.53;;
14907;SDS011;7545;52.092;7.006;2024-01-11T03:45:52;14.17;;;5.97;;
14907;SDS011;7545;52.092;7.006;2024-01-11T03:48:17;10.10;;;5.87;;
14907;SDS011;7545;52.092;7.006;2024-01-11T03:50:43;10.87;;;6.53;;
14907;SDS011;7545;52.092;7.006;2024-01-11T03:53:08;14.43;;;6.40;;
14907;SDS011;7545;52.092;7.006;2024-01-11T03:55:34;10.70;;;7.07;;
14907;SDS011;7545;52.092;7.006;2024-01-11T03:58:02;8.87;;;5.80;;
14907;SDS011;7545;52.092;7.006;2024-01-11T04:00:28;9.40;;;5.03;;
14907;SDS011;7545;52.092;7.006;2024-01-11T04:02:53;12.03;;;6.70;;
14907;SDS011;7545;52.092;7.006;2024-01-11T04:05:19;7.60;;;5.17;;
14907;SDS011;7545;52.092;7.006;2024-01-11T04:07:44;12.87;;;7.23;;
14907;SDS011;7545;52.092;7.006;2024-01-11T04:10:10;9.13;;;6.10;;
14907;SDS011;7545;52.092;7.006;2024-01-11T04:12:36;10.70;;;5.80;;
14907;SDS011;7545;52.092;7.006;2024-01-11T04:15:02;12.00;;;5.80;;
14907;SDS011;7545;52.092;7.006;2024-01-11T04:17:28;12.40;;;6.27;;
14907;SDS011;7545;52.092;7.006;2024-01-11T04:19:54;13.60;;;5.43;;
14907;SDS011;7545;52.092;7.006;2024-01-11T04:22:19;15.87;;;7.80;;
14907;SDS011;7545;52.092;7.006;2024-01-11T04:24:45;8.57;;;4.67;;
14907;SDS011;7545;52.092;7.006;2024-01-11T04:27:11;11.70;;;5.27;;
14907;SDS011;7545;52.092;7.006;2024-01-11T04:29:37;9.87;;;5.93;;
14907;SDS011;7545;52.092;7.006;2024-01-11T04:32:05;14.13;;;6.90;;
14907;SDS011;7545;52.092;7.006;2024-01-11T04:34:31;13.53;;;6.17;;
14907;SDS011;7545;52.092;7.006;2024-01-11T04:36:56;14.43;;;7.23;;
14907;SDS011;7545;52.092;7.006;2024-01-11T04:39:22;10.00;;;5.83;;
14907;SDS011;7545;52.092;7.006;2024-01-11T04:41:47;21.03;;;5.80;;
14907;SDS011;7545;52.092;7.006;2024-01-11T04:44:13;10.17;;;5.83;;
14907;SDS011;7545;52.092;7.006;2024-01-11T04:46:42;12.20;;;6.60;;
14907;SDS011;7545;52.092;7.006;2024-01-11T04:49:08;9.13;;;4.23;;
14907;SDS011;7545;52.092;7.006;2024-01-11T04:51:34;11.63;;;5.83;;
14907;SDS011;7545;52.092;7.006;2024-01-11T04:53:59;11.10;;;5.60;;
14907;SDS011;7545;52.092;7.006;2024-01-11T04:56:26;9.80;;;5.67;;
14907;SDS011;7545;52.092;7.006;2024-01-11T04:58:51;8.47;;;5.30;;
14907;SDS011;7545;52.092;7.006;2024-01-11T05:01:17;10.37;;;5.50;;
14907;SDS011;7545;52.092;7.006;2024-01-11T05:03:43;14.00;;;7.43;;
14907;SDS011;7545;52.092;7.006;2024-01-11T05:06:17;13.17;;;7.33;;
14907;SDS011;7545;52.092;7.006;2024-01-11T05:08:44;10.80;;;5.23;;
14907;SDS011;7545;52.092;7.006;2024-01-11T05:13:43;11.87;;;6.33;;
14907;SDS011;7545;52.092;7.006;2024-01-11T05:16:17;12.10;;;5.77;;
14907;SDS011;7545;52.092;7.006;2024-01-11T05:18:47;18.43;;;7.40;;
14907;SDS011;7545;52.092;7.006;2024-01-11T05:21:13;13.13;;;7.67;;
14907;SDS011;7545;52.092;7.006;2024-01-11T05:23:40;14.27;;;7.13;;
14907;SDS011;7545;52.092;7.006;2024-01-11T05:26:07;14.13;;;6.17;;
14907;SDS011;7545;52.092;7.006;2024-01-11T05:28:33;11.73;;;7.00;;
14907;SDS011;7545;52.092;7.006;2024-01-11T05:30:58;11.50;;;6.73;;
14907;SDS011;7545;52.092;7.006;2024-01-11T05:33:24;13.77;;;7.07;;
14907;SDS011;7545;52.092;7.006;2024-01-11T05:35:50;13.23;;;6.27;;
14907;SDS011;7545;52.092;7.006;2024-01-11T05:38:15;12.27;;;6.37;;
14907;SDS011;7545;52.092;7.006;2024-01-11T05:40:41;9.50;;;6.30;;
14907;SDS011;7545;52.092;7.006;2024-01-11T05:43:06;11.90;;;5.27;;
14907;SDS011;7545;52.092;7.006;2024-01-11T05:45:32;15.57;;;7.13;;
14907;SDS011;7545;52.092;7.006;2024-01-11T05:47:58;8.60;;;5.43;;
14907;SDS011;7545;52.092;7.006;2024-01-11T05:50:24;12.77;;;6.27;;
14907;SDS011;7545;52.092;7.006;2024-01-11T05:52:51;14.70;;;6.60;;
14907;SDS011;7545;52.092;7.006;2024-01-11T05:55:18;9.50;;;5.77;;
14907;SDS011;7545;52.092;7.006;2024-01-11T05:57:44;7.83;;;6.23;;
14907;SDS011;7545;52.092;7.006;2024-01-11T06:00:10;13.67;;;6.90;;
14907;SDS011;7545;52.092;7.006;2024-01-11T06:02:36;9.00;;;5.87;;
14907;SDS011;7545;52.092;7.006;2024-01-11T06:05:02;10.50;;;5.93;;
14907;SDS011;7545;52.092;7.006;2024-01-11T06:07:28;11.80;;;5.87;;
14907;SDS011;7545;52.092;7.006;2024-01-11T06:09:54;13.20;;;6.83;;
14907;SDS011;7545;52.092;7.006;2024-01-11T06:12:19;11.67;;;6.70;;
14907;SDS011;7545;52.092;7.006;2024-01-11T06:14:45;12.63;;;6.20;;
14907;SDS011;7545;52.092;7.006;2024-01-11T06:17:11;11.27;;;6.27;;
14907;SDS011;7545;52.092;7.006;2024-01-11T06:19:37;9.93;;;5.23;;
14907;SDS011;7545;52.092;7.006;2024-01-11T06:22:05;12.13;;;6.60;;
14907;SDS011;7545;52.092;7.006;2024-01-11T06:24:31;11.87;;;6.90;;
14907;SDS011;7545;52.092;7.006;2024-01-11T06:26:57;8.70;;;4.70;;
14907;SDS011;7545;52.092;7.006;2024-01-11T06:29:22;11.30;;;5.50;;
14907;SDS011;7545;52.092;7.006;2024-01-11T06:31:48;12.17;;;5.70;;
14907;SDS011;7545;52.092;7.006;2024-01-11T06:34:13;12.97;;;6.73;;
14907;SDS011;7545;52.092;7.006;2024-01-11T06:36:39;12.63;;;5.90;;
14907;SDS011;7545;52.092;7.006;2024-01-11T06:39:04;14.57;;;6.17;;
14907;SDS011;7545;52.092;7.006;2024-01-11T06:41:30;9.43;;;6.27;;
14907;SDS011;7545;52.092;7.006;2024-01-11T06:43:56;11.63;;;6.90;;
14907;SDS011;7545;52.092;7.006;2024-01-11T06:46:22;19.10;;;9.27;;
14907;SDS011;7545;52.092;7.006;2024-01-11T06:48:48;9.37;;;5.73;;
14907;SDS011;7545;52.092;7.006;2024-01-11T06:51:20;14.50;;;7.53;;
14907;SDS011;7545;52.092;7.006;2024-01-11T06:53:46;10.67;;;6.17;;
14907;SDS011;7545;52.092;7.006;2024-01-11T06:56:13;13.17;;;6.67;;
14907;SDS011;7545;52.092;7.006;2024-01-11T06:58:43;11.47;;;5.70;;
14907;SDS011;7545;52.092;7.006;2024-01-11T07:01:09;13.43;;;6.90;;
14907;SDS011;7545;52.092;7.006;2024-01-11T07:03:35;14.10;;;6.47;;
14907;SDS011;7545;52.092;7.006;2024-01-11T07:06:01;14.67;;;7.53;;
14907;SDS011;7545;52.092;7.006;2024-01-11T07:08:27;15.13;;;7.83;;
14907;SDS011;7545;52.092;7.006;2024-01-11T07:10:53;10.30;;;5.97;;
14907;SDS011;7545;52.092;7.006;2024-01-11T07:13:19;11.47;;;5.63;;
14907;SDS011;7545;52.092;7.006;2024-01-11T07:15:44;11.30;;;6.50;;
14907;SDS011;7545;52.092;7.006;2024-01-11T07:18:10;13.47;;;6.17;;
14907;SDS011;7545;52.092;7.006;2024-01-11T07:20:36;12.07;;;6.17;;
14907;SDS011;7545;52.092;7.006;2024-01-11T07:23:02;13.33;;;6.73;;
14907;SDS011;7545;52.092;7.006;2024-01-11T07:25:27;9.60;;;5.13;;
14907;SDS011;7545;52.092;7.006;2024-01-11T07:27:53;12.30;;;6.23;;
14907;SDS011;7545;52.092;7.006;2024-01-11T07:30:18;9.67;;;5.40;;
14907;SDS011;7545;52.092;7.006;2024-01-11T07:32:44;11.73;;;6.33;;
14907;SDS011;7545;52.092;7.006;2024-01-11T07:35:10;9.17;;;5.47;;
14907;SDS011;7545;52.092;7.006;2024-01-11T07:37:39;11.93;;;6.40;;
14907;SDS011;7545;52.092;7.006;2024-01-11T07:40:05;9.73;;;5.93;;
14907;SDS011;7545;52.092;7.006;2024-01-11T07:42:36;10.60;;;6.33;;
14907;SDS011;7545;52.092;7.006;2024-01-11T07:45:03;14.30;;;8.07;;
14907;SDS011;7545;52.092;7.006;2024-01-11T07:47:30;14.23;;;6.23;;
14907;SDS011;7545;52.092;7.006;2024-01-11T07:49:55;11.40;;;7.07;;
14907;SDS011;7545;52.092;7.006;2024-01-11T07:52:21;13.40;;;6.63;;
14907;SDS011;7545;52.092;7.006;2024-01-11T07:54:47;12.53;;;4.83;;
14907;SDS011;7545;52.092;7.006;2024-01-11T07:57:12;15.03;;;7.03;;
14907;SDS011;7545;52.092;7.006;2024-01-11T07:59:38;15.23;;;6.27;;
14907;SDS011;7545;52.092;7.006;2024-01-11T08:02:04;14.67;;;6.63;;
14907;SDS011;7545;52.092;7.006;2024-01-11T08:04:30;13.73;;;7.10;;
14907;SDS011;7545;52.092;7.006;2024-01-11T08:06:56;19.27;;;7.17;;
14907;SDS011;7545;52.092;7.006;2024-01-11T08:09:24;13.97;;;7.17;;
14907;SDS011;7545;52.092;7.006;2024-01-11T08:11:50;20.90;;;8.47;;
14907;SDS011;7545;52.092;7.006;2024-01-11T08:14:17;14.03;;;7.23;;
14907;SDS011;7545;52.092;7.006;2024-01-11T08:16:43;13.37;;;8.00;;
14907;SDS011;7545;52.092;7.006;2024-01-11T08:19:08;10.87;;;7.13;;
14907;SDS011;7545;52.092;7.006;2024-01-11T08:21:35;17.13;;;7.07;;
14907;SDS011;7545;52.092;7.006;2024-01-11T08:24:01;12.93;;;6.77;;
14907;SDS011;7545;52.092;7.006;2024-01-11T08:26:27;11.73;;;6.53;;
14907;SDS011;7545;52.092;7.006;2024-01-11T08:28:54;12.50;;;5.90;;
14907;SDS011;7545;52.092;7.006;2024-01-11T08:31:20;12.43;;;7.20;;
14907;SDS011;7545;52.092;7.006;2024-01-11T08:33:46;15.30;;;8.60;;
14907;SDS011;7545;52.092;7.006;2024-01-11T08:36:11;13.87;;;7.33;;
14907;SDS011;7545;52.092;7.006;2024-01-11T08:38:37;11.63;;;6.97;;
14907;SDS011;7545;52.092;7.006;2024-01-11T08:41:03;10.57;;;6.03;;
14907;SDS011;7545;52.092;7.006;2024-01-11T08:43:29;15.67;;;7.77;;
14907;SDS011;7545;52.092;7.006;2024-01-11T08:45:55;11.57;;;6.57;;
14907;SDS011;7545;52.092;7.006;2024-01-11T08:48:20;18.13;;;7.10;;
14907;SDS011;7545;52.092;7.006;2024-01-11T08:50:46;12.47;;;7.57;;
14907;SDS011;7545;52.092;7.006;2024-01-11T08:53:12;17.73;;;8.30;;
14907;SDS011;7545;52.092;7.006;2024-01-11T08:55:37;17.40;;;8.47;;
14907;SDS011;7545;52.092;7.006;2024-01-11T08:58:03;11.20;;;6.63;;
14907;SDS011;7545;52.092;7.006;2024-01-11T09:00:29;13.80;;;8.47;;
14907;SDS011;7545;52.092;7.006;2024-01-11T09:02:55;17.47;;;7.83;;
14907;SDS011;7545;52.092;7.006;2024-01-11T09:05:20;12.37;;;6.80;;
14907;SDS011;7545;52.092;7.006;2024-01-11T09:07:46;20.70;;;10.53;;
14907;SDS011;7545;52.092;7.006;2024-01-11T09:10:12;24.57;;;11.90;;
14907;SDS011;7545;52.092;7.006;2024-01-11T09:12:38;27.20;;;11.93;;
14907;SDS011;7545;52.092;7.006;2024-01-11T09:15:04;28.23;;;15.07;;
14907;SDS011;7545;52.092;7.006;2024-01-11T09:17:30;23.43;;;11.50;;
14907;SDS011;7545;52.092;7.006;2024-01-11T09:19:55;18.80;;;10.30;;
14907;SDS011;7545;52.092;7.006;2024-01-11T09:22:21;16.37;;;8.23;;
14907;SDS011;7545;52.092;7.006;2024-01-11T09:24:46;20.67;;;9.60;;
14907;SDS011;7545;52.092;7.006;2024-01-11T09:27:12;19.10;;;8.60;;
14907;SDS011;7545;52.092;7.006;2024-01-11T09:29:44;12.03;;;7.93;;
14907;SDS011;7545;52.092;7.006;2024-01-11T09:32:11;18.77;;;9.10;;
14907;SDS011;7545;52.092;7.006;2024-01-11T09:34:37;11.70;;;7.80;;
14907;SDS011;7545;52.092;7.006;2024-01-11T09:37:02;16.60;;;7.20;;
14907;SDS011;7545;52.092;7.006;2024-01-11T09:39:28;13.50;;;8.63;;
14907;SDS011;7545;52.092;7.006;2024-01-11T09:41:58;14.83;;;7.03;;
14907;SDS011;7545;52.092;7.006;2024-01-11T09:44:26;11.70;;;5.83;;
14907;SDS011;7545;52.092;7.006;2024-01-11T09:46:52;13.60;;;6.90;;
14907;SDS011;7545;52.092;7.006;2024-01-11T09:49:18;9.13;;;5.30;;
14907;SDS011;7545;52.092;7.006;2024-01-11T09:51:46;9.73;;;6.13;;
14907;SDS011;7545;52.092;7.006;2024-01-11T09:54:16;11.97;;;6.70;;
14907;SDS011;7545;52.092;7.006;2024-01-11T09:56:46;13.70;;;7.53;;
14907;SDS011;7545;52.092;7.006;2024-01-11T09:59:14;16.63;;;7.73;;
14907;SDS011;7545;52.092;7.006;2024-01-11T10:01:43;17.20;;;7.43;;
14907;SDS011;7545;52.092;7.006;2024-01-11T10:04:09;9.40;;;5.83;;
14907;SDS011;7545;52.092;7.006;2024-01-11T10:06:37;12.67;;;6.70;;
14907;SDS011;7545;52.092;7.006;2024-01-11T10:09:03;11.17;;;6.43;;
14907;SDS011;7545;52.092;7.006;2024-01-11T10:11:29;14.67;;;7.47;;
14907;SDS011;7545;52.092;7.006;2024-01-11T10:13:58;13.93;;;7.47;;
14907;SDS011;7545;52.092;7.006;2024-01-11T10:16:25;11.70;;;7.33;;
14907;SDS011;7545;52.092;7.006;2024-01-11T10:18:53;20.70;;;7.83;;
14907;SDS011;7545;52.092;7.006;2024-01-11T10:21:19;14.67;;;8.13;;
14907;SDS011;7545;52.092;7.006;2024-01-11T10:23:45;16.07;;;7.77;;
14907;SDS011;7545;52.092;7.006;2024-01-11T10:26:12;15.87;;;7.13;;
14907;SDS011;7545;52.092;7.006;2024-01-11T10:28:43;19.60;;;8.80;;
14907;SDS011;7545;52.092;7.006;2024-01-11T10:31:12;15.47;;;7.93;;
14907;SDS011;7545;52.092;7.006;2024-01-11T10:33:40;13.53;;;8.20;;
14907;SDS011;7545;52.092;7.006;2024-01-11T10:36:06;12.87;;;8.10;;
14907;SDS011;7545;52.092;7.006;2024-01-11T10:38:38;14.47;;;8.50;;
14907;SDS011;7545;52.092;7.006;2024-01-11T10:41:05;20.57;;;9.63;;
14907;SDS011;7545;52.092;7.006;2024-01-11T10:43:31;13.00;;;7.73;;
14907;SDS011;7545;52.092;7.006;2024-01-11T10:46:00;12.83;;;8.10;;
14907;SDS011;7545;52.092;7.006;2024-01-11T10:48:30;17.97;;;7.90;;
14907;SDS011;7545;52.092;7.006;2024-01-11T10:51:00;14.17;;;8.60;;
14907;SDS011;7545;52.092;7.006;2024-01-11T10:56:07;17.00;;;9.03;;
14907;SDS011;7545;52.092;7.006;2024-01-11T10:58:34;13.97;;;7.80;;
14907;SDS011;7545;52.092;7.006;2024-01-11T11:01:00;17.60;;;9.10;;
14907;SDS011;7545;52.092;7.006;2024-01-11T11:03:29;18.90;;;7.97;;
14907;SDS011;7545;52.092;7.006;2024-01-11T11:05:56;14.83;;;8.03;;
14907;SDS011;7545;52.092;7.006;2024-01-11T11:08:24;14.07;;;7.63;;
14907;SDS011;7545;52.092;7.006;2024-01-11T11:10:58;15.00;;;7.80;;
14907;SDS011;7545;52.092;7.006;2024-01-11T11:13:25;14.27;;;7.57;;
14907;SDS011;7545;52.092;7.006;2024-01-11T11:15:52;16.90;;;9.13;;
14907;SDS011;7545;52.092;7.006;2024-01-11T11:18:18;15.97;;;8.30;;
14907;SDS011;7545;52.092;7.006;2024-01-11T11:20:46;13.83;;;7.43;;
14907;SDS011;7545;52.092;7.006;2024-01-11T11:23:14;15.50;;;8.03;;
14907;SDS011;7545;52.092;7.006;2024-01-11T11:25:43;19.43;;;9.73;;
14907;SDS011;7545;52.092;7.006;2024-01-11T11:28:11;12.60;;;7.03;;
14907;SDS011;7545;52.092;7.006;2024-01-11T11:30:38;17.20;;;7.70;;
14907;SDS011;7545;52.092;7.006;2024-01-11T11:33:19;16.87;;;8.47;;
14907;SDS011;7545;52.092;7.006;2024-01-11T11:35:46;13.13;;;7.33;;
14907;SDS011;7545;52.092;7.006;2024-01-11T11:38:22;13.43;;;6.50;;
14907;SDS011;7545;52.092;7.006;2024-01-11T11:40:51;16.27;;;8.53;;
14907;SDS011;7545;52.092;7.006;2024-01-11T11:43:17;17.10;;;8.30;;
14907;SDS011;7545;52.092;7.006;2024-01-11T11:45:49;16.50;;;8.87;;
14907;SDS011;7545;52.092;7.006;2024-01-11T11:48:47;15.17;;;8.60;;
14907;SDS011;7545;52.092;7.006;2024-01-11T11:51:17;16.10;;;7.77;;
14907;SDS011;7545;52.092;7.006;2024-01-11T11:53:45;12.57;;;6.43;;
14907;SDS011;7545;52.092;7.006;2024-01-11T11:56:13;18.03;;;8.87;;
14907;SDS011;7545;52.092;7.006;2024-01-11T11:58:41;12.43;;;7.37;;
14907;SDS011;7545;52.092;7.006;2024-01-11T12:01:11;14.90;;;7.97;;
14907;SDS011;7545;52.092;7.006;2024-01-11T12:03:40;12.87;;;7.33;;
14907;SDS011;7545;52.092;7.006;2024-01-11T12:06:07;22.43;;;8.80;;
14907;SDS011;7545;52.092;7.006;2024-01-11T12:08:34;15.90;;;8.67;;
14907;SDS011;7545;52.092;7.006;2024-01-11T12:11:00;15.20;;;7.87;;
14907;SDS011;7545;52.092;7.006;2024-01-11T12:13:26;20.63;;;9.17;;
14907;SDS011;7545;52.092;7.006;2024-01-11T12:15:52;17.33;;;9.17;;
14907;SDS011;7545;52.092;7.006;2024-01-11T12:18:18;14.53;;;8.50;;
14907;SDS011;7545;52.092;7.006;2024-01-11T12:20:44;20.07;;;9.70;;
14907;SDS011;7545;52.092;7.006;2024-01-11T12:23:10;16.97;;;9.27;;
14907;SDS011;7545;52.092;7.006;2024-01-11T12:25:38;19.40;;;9.53;;
14907;SDS011;7545;52.092;7.006;2024-01-11T12:28:08;16.57;;;8.30;;
14907;SDS011;7545;52.092;7.006;2024-01-11T12:30:33;21.83;;;10.33;;
14907;SDS011;7545;52.092;7.006;2024-01-11T12:32:59;25.77;;;10.27;;
14907;SDS011;7545;52.092;7.006;2024-01-11T12:35:29;24.50;;;11.20;;
14907;SDS011;7545;52.092;7.006;2024-01-11T12:37:55;20.10;;;10.47;;
14907;SDS011;7545;52.092;7.006;2024-01-11T12:40:25;20.80;;;10.17;;
14907;SDS011;7545;52.092;7.006;2024-01-11T12:42:52;21.20;;;11.80;;
14907;SDS011;7545;52.092;7.006;2024-01-11T12:45:18;23.43;;;10.83;;
14907;SDS011;7545;52.092;7.006;2024-01-11T12:47:44;16.57;;;9.13;;
14907;SDS011;7545;52.092;7.006;2024-01-11T12:50:09;19.93;;;9.93;;
14907;SDS011;7545;52.092;7.006;2024-01-11T12:52:37;23.03;;;9.57;;
14907;SDS011;7545;52.092;7.006;2024-01-11T12:55:03;26.83;;;11.23;;
14907;SDS011;7545;52.092;7.006;2024-01-11T12:57:29;27.80;;;13.03;;
14907;SDS011;7545;52.092;7.006;2024-01-11T12:59:55;32.07;;;15.60;;
14907;SDS011;7545;52.092;7.006;2024-01-11T13:02:35;33.97;;;15.33;;
14907;SDS011;7545;52.092;7.006;2024-01-11T13:05:01;26.17;;;12.87;;
14907;SDS011;7545;52.092;7.006;2024-01-11T13:07:27;39.27;;;14.70;;
14907;SDS011;7545;52.092;7.006;2024-01-11T13:09:53;30.50;;;15.57;;
14907;SDS011;7545;52.092;7.006;2024-01-11T13:12:18;25.33;;;13.13;;
14907;SDS011;7545;52.092;7.006;2024-01-11T13:14:45;29.83;;;14.33;;
14907;SDS011;7545;52.092;7.006;2024-01-11T13:17:12;32.57;;;13.53;;
14907;SDS011;7545;52.092;7.006;2024-01-11T13:19:38;31.37;;;13.87;;
14907;SDS011;7545;52.092;7.006;2024-01-11T13:22:04;24.43;;;13.07;;
14907;SDS011;7545;52.092;7.006;2024-01-11T13:24:30;32.60;;;13.00;;
14907;SDS011;7545;52.092;7.006;2024-01-11T13:26:56;24.87;;;12.67;;
14907;SDS011;7545;52.092;7.006;2024-01-11T13:29:21;27.50;;;12.33;;
14907;SDS011;7545;52.092;7.006;2024-01-11T13:31:47;25.10;;;11.53;;
14907;SDS011;7545;52.092;7.006;2024-01-11T13:34:12;27.00;;;11.77;;
14907;SDS011;7545;52.092;7.006;2024-01-11T13:36:38;29.73;;;13.03;;
14907;SDS011;7545;52.092;7.006;2024-01-11T13:39:03;25.20;;;12.33;;
14907;SDS011;7545;52.092;7.006;2024-01-11T13:41:29;28.60;;;12.27;;
14907;SDS011;7545;52.092;7.006;2024-01-11T13:43:55;25.63;;;11.23;;
14907;SDS011;7545;52.092;7.006;2024-01-11T13:46:21;25.03;;;11.63;;
14907;SDS011;7545;52.092;7.006;2024-01-11T13:48:46;19.43;;;11.60;;
14907;SDS011;7545;52.092;7.006;2024-01-11T13:51:12;25.53;;;12.43;;
14907;SDS011;7545;52.092;7.006;2024-01-11T13:53:40;25.57;;;10.80;;
14907;SDS011;7545;52.092;7.006;2024-01-11T13:56:05;23.93;;;11.03;;
14907;SDS011;7545;52.092;7.006;2024-01-11T13:58:31;25.43;;;12.83;;
14907;SDS011;7545;52.092;7.006;2024-01-11T14:00:57;29.27;;;12.53;;
14907;SDS011;7545;52.092;7.006;2024-01-11T14:03:23;23.20;;;11.90;;
14907;SDS011;7545;52.092;7.006;2024-01-11T14:05:48;22.23;;;11.63;;
14907;SDS011;7545;52.092;7.006;2024-01-11T14:08:14;21.47;;;12.13;;
14907;SDS011;7545;52.092;7.006;2024-01-11T14:10:40;21.67;;;11.30;;
14907;SDS011;7545;52.092;7.006;2024-01-11T14:13:05;23.87;;;11.53;;
14907;SDS011;7545;52.092;7.006;2024-01-11T14:15:31;15.03;;;8.27;;
14907;SDS011;7545;52.092;7.006;2024-01-11T14:17:57;15.27;;;7.03;;
14907;SDS011;7545;52.092;7.006;2024-01-11T14:20:25;25.73;;;10.53;;
14907;SDS011;7545;52.092;7.006;2024-01-11T14:22:52;26.20;;;10.10;;
14907;SDS011;7545;52.092;7.006;2024-01-11T14:25:18;17.80;;;8.93;;
14907;SDS011;7545;52.092;7.006;2024-01-11T14:27:45;20.73;;;9.30;;
14907;SDS011;7545;52.092;7.006;2024-01-11T14:30:12;20.40;;;9.27;;
14907;SDS011;7545;52.092;7.006;2024-01-11T14:32:38;18.67;;;8.87;;
14907;SDS011;7545;52.092;7.006;2024-01-11T14:35:06;17.17;;;7.97;;
14907;SDS011;7545;52.092;7.006;2024-01-11T14:37:32;19.90;;;9.37;;
14907;SDS011;7545;52.092;7.006;2024-01-11T14:39:59;17.63;;;9.00;;
14907;SDS011;7545;52.092;7.006;2024-01-11T14:42:25;21.97;;;9.70;;
14907;SDS011;7545;52.092;7.006;2024-01-11T14:44:51;20.10;;;11.07;;
14907;SDS011;7545;52.092;7.006;2024-01-11T14:47:17;19.80;;;9.63;;
14907;SDS011;7545;52.092;7.006;2024-01-11T14:49:42;17.60;;;9.30;;